Terminal Aerodrome Forecast
Issued by NWS Sterling, VA

Current Version | Previous Version | Graphics & Text | Print | Product List | Glossary On
Versions: 1 2 3 4 5 6 7 8 9 10 11 12 13 14 15 16 17
065
FTUS41 KLWX 262341 AAB
TAFMRB
TAF AMD
KMRB 262341Z 2700/2724 20004KT P6SM VCTS BKN060CB
     FM270200 VRB03KT P6SM BKN060
     FM270800 VRB03KT P6SM SCT070
     FM271800 19005KT P6SM -SHRA VCTS SCT060CB=

USA.gov is the U.S. government's official web portal to all federal, state and local government web resources and services.